Gillette, WY (82716)

6:05 AM MST on December 05, 2016 (GMT -0700)
McCann Heights, central Gillette | | Change Station
Active Advisory: Winter Weather Advisory

Elev 4590 ft 44.28 °N, 105.50 °W | Updated 20 seconds ago

Light Snow
Light Snow Mist
24.2 °F
Feels Like 16 °F
N
7.0
Wind Variable Wind from WNW

Today
High -- | Low -- °F
--% Chance of Precip.
Yesterday
High -- | Low -- °F
Precip. -- in
Pressure 29.67 in
Visibility 1.0 miles
Clouds
Windchill 16 °F
Dew Point 21 °F
Humidity 90%
Rainfall 0.00 in
Snow Depth Not available.
7:22 AM 4:23 PM
Waxing Crescent, 31% visible
METAR KGCC 051253Z AUTO 34018KT 1SM -SN BR VV013 M04/M04 A2959 RMK AO2 SLP047 P0004 T10391044 $
Pressure 29.67 in
Visibility 1.0 miles
Clouds
Windchill 16 °F
Dew Point 21 °F
Humidity 90%
Rainfall 0.00 in
Snow Depth Not available.
7:22 AM 4:23 PM
Waxing Crescent, 31% visible
METAR KGCC 051253Z AUTO 34018KT 1SM -SN BR VV013 M04/M04 A2959 RMK AO2 SLP047 P0004 T10391044 $

10-Day Weather Forecast

Almanac

Astronomy

Dec. 05, 2016 Rise Set
Actual Time
Civil Twilight
Nautical Twilight
Astronomical Twilight
Moon
Length of Visible Light
Length of Day
Tomorrow will be .
, % of the Moon is Illuminated

Today's Extremes

State Highs State Lows

Community

WunderPhotos

Upload Photos

1,955,780 photos uploaded!

WunderBlog® & News

Nearby

Air Quality

  Air Quality AQ Index Pollutant
Not available.

Snow Depth

Station Depth Elevation

Earthquake Activity

City Distance Mag. Time & Date
Minimum magnitude displayed is 2.5.

Coastal Water Temperatures

Place Temperature

Stations

Nearby Weather Stations

Station Location Temp. Windchill Dew Point Humidity Wind Precip. Elev Updated Type
                   

Watches & Warnings

Winter Weather Advisory
Issued: 3:09 AM MST Dec. 5, 2016 – National Weather Service

... Winter Weather Advisory remains in effect until 5 PM MST this
afternoon...

* timing... through late this afternoon.

* Main impact... 2 to 4 inches of snow and breezy northwest winds
will create blowing snow and reduced visibilities.

* Other impacts... wind chill readings falling to near zero by late
this afternoon.

Precautionary/preparedness actions...

A Winter Weather Advisory means snow... freezing precipitation...
wind... and cold temperatures will create hazardous conditions.
Use caution when outdoors or traveling.